»·PEaware :: N461D KSBD-KSBP

N461D :: KSBD-KSBP

FLIGHT INFORMATION

Flight Status: Arrived
Operator: Privately registered:
United States
More flights under this callsign
Pilot: Daniel R. (17770)
Aircraft: CESSNA 172 SKYHAWK
(C172)
More flights by this aircraft type
Origin: KSBD San Bernardino Intl
United States
Destination: KSBP San Luis Co Regl
United States
More flights between these airports :: More routes between these airports
Route: +PDZ V186 FIM V386 RZS V12 GVO V27 MQO
File this flight plan on PilotEdge
Remarks: Sample flight plan
Altitude:
(Current/Filed)
8,000ft
Speed:
(Current/Filed)
115kts
Departed: 07-Jan-18 12:13 PM
Arrived: 07-Jan-18 02:02 PM
Distance/Time
Traveled:
182nm/1:48
Distance/Time
To Go:
Arrived

Flight Plot

Page will automatically refresh every two minutes.


Map Options




Map Legend


Flown Route
Filed Route
Departure Airport
Arrival Airport
Navaid (VOR, NDB)
Fix

Horizontal Profiles

Position Reports

Time Latitude Longitude Heading Altitude Ground
Speed
07-Jan-18 11:28 34.101582 -117.224463 179 1161ft 0kts
07-Jan-18 11:29 34.101582 -117.224463 179 1161ft 0kts
07-Jan-18 11:30 34.101582 -117.224463 179 1161ft 0kts
07-Jan-18 11:31 34.101582 -117.224463 179 1161ft 0kts
07-Jan-18 11:32 34.101582 -117.224463 179 1161ft 0kts
07-Jan-18 11:33 34.101582 -117.224463 179 1161ft 0kts
07-Jan-18 11:34 34.101582 -117.224463 179 1161ft 0kts
07-Jan-18 11:35 34.101582 -117.224463 179 1161ft 0kts
07-Jan-18 11:36 34.101582 -117.224463 179 1161ft 0kts
07-Jan-18 11:37 34.101582 -117.224463 179 1161ft 0kts
07-Jan-18 11:38 34.101582 -117.224463 179 1161ft 0kts
07-Jan-18 11:39 34.101582 -117.224463 179 1161ft 0kts
07-Jan-18 11:40 34.101582 -117.224463 179 1161ft 0kts
07-Jan-18 11:41 34.101582 -117.224463 179 1161ft 0kts
07-Jan-18 11:42 34.101582 -117.224463 179 1161ft 0kts
07-Jan-18 11:43 34.101582 -117.224463 179 1161ft 0kts
07-Jan-18 11:44 34.101582 -117.224463 179 1161ft 0kts
07-Jan-18 11:45 34.101582 -117.224463 179 1161ft 0kts
07-Jan-18 11:46 34.101582 -117.224463 179 1161ft 0kts
07-Jan-18 11:47 34.101582 -117.224463 179 1161ft 0kts
07-Jan-18 11:48 34.101582 -117.224463 179 1161ft 0kts
07-Jan-18 11:49 34.101582 -117.224463 179 1161ft 0kts
07-Jan-18 11:50 34.101582 -117.224463 179 1161ft 0kts
07-Jan-18 11:51 34.101582 -117.224463 179 1161ft 0kts
07-Jan-18 11:52 34.101582 -117.224463 179 1161ft 0kts
07-Jan-18 11:53 34.101582 -117.224463 179 1161ft 0kts
07-Jan-18 11:54 34.101582 -117.224463 179 1161ft 0kts
07-Jan-18 11:55 34.101582 -117.224463 179 1161ft 0kts
07-Jan-18 11:56 34.101582 -117.224463 179 1161ft 0kts
07-Jan-18 11:57 34.101582 -117.224463 179 1161ft 0kts
07-Jan-18 11:58 34.101582 -117.224463 179 1161ft 0kts
07-Jan-18 11:59 34.101582 -117.224463 179 1161ft 0kts
07-Jan-18 12:00 34.101582 -117.224463 179 1161ft 0kts
07-Jan-18 12:01 34.101582 -117.224463 179 1161ft 0kts
07-Jan-18 12:02 34.101582 -117.224463 179 1161ft 0kts
07-Jan-18 12:03 34.101582 -117.224463 179 1161ft 0kts
07-Jan-18 12:04 34.101582 -117.224463 179 1161ft 0kts
07-Jan-18 12:05 34.101582 -117.224463 179 1161ft 0kts
07-Jan-18 12:06 34.101582 -117.224463 179 1161ft 0kts
07-Jan-18 12:07 34.101582 -117.224463 179 1161ft 0kts
07-Jan-18 12:08 34.101582 -117.224463 179 1161ft 0kts
07-Jan-18 12:09 34.101582 -117.224463 179 1161ft 0kts
07-Jan-18 12:10 34.101324 -117.224475 184 1161ft 8kts
07-Jan-18 12:11 34.098669 -117.229714 250 1161ft 27kts
07-Jan-18 12:12 34.095820 -117.239380 251 1161ft 32kts
07-Jan-18 12:13 34.092701 -117.249915 250 1161ft 34kts
07-Jan-18 12:14 34.091724 -117.251717 31 1161ft 0kts
07-Jan-18 12:15 34.091745 -117.251651 71 1161ft 0kts
07-Jan-18 12:16 34.091745 -117.251650 71 1161ft 0kts
07-Jan-18 12:17 34.091745 -117.251651 71 1161ft 0kts
07-Jan-18 12:18 34.091748 -117.251631 79 1161ft 2kts
07-Jan-18 12:19 34.091850 -117.246464 69 1161ft 69kts
07-Jan-18 12:20 34.093748 -117.217982 139 1843ft 94kts
07-Jan-18 12:21 34.075098 -117.229525 232 2768ft 85kts
07-Jan-18 12:22 34.059760 -117.255275 235 3477ft 100kts
07-Jan-18 12:23 34.043006 -117.283156 232 4129ft 106kts
07-Jan-18 12:24 34.027457 -117.311526 246 4694ft 108kts
07-Jan-18 12:25 34.030666 -117.346463 282 5286ft 105kts
07-Jan-18 12:26 34.035584 -117.381102 280 5888ft 104kts
07-Jan-18 12:27 34.039972 -117.415111 280 6488ft 102kts
07-Jan-18 12:28 34.046279 -117.447683 285 7085ft 99kts
07-Jan-18 12:29 34.050668 -117.482169 280 7520ft 108kts
07-Jan-18 12:30 34.055156 -117.518488 280 7853ft 114kts
07-Jan-18 12:31 34.060120 -117.557659 281 8003ft 122kts
07-Jan-18 12:32 34.065501 -117.599223 281 7999ft 127kts
07-Jan-18 12:33 34.071327 -117.641444 284 8000ft 121kts
07-Jan-18 12:34 34.077934 -117.679557 284 8006ft 117kts
07-Jan-18 12:35 34.084837 -117.718160 284 8011ft 118kts
07-Jan-18 12:36 34.091563 -117.756784 285 8015ft 117kts
07-Jan-18 12:37 34.098985 -117.795184 285 8020ft 117kts
07-Jan-18 12:38 34.106134 -117.833508 285 8042ft 116kts
07-Jan-18 12:39 34.113228 -117.872050 285 8021ft 118kts
07-Jan-18 12:40 34.120328 -117.910826 284 7989ft 118kts
07-Jan-18 12:41 34.127415 -117.949695 284 7956ft 118kts
07-Jan-18 12:42 34.134423 -117.988270 284 7924ft 117kts
07-Jan-18 12:43 34.141383 -118.026602 284 7906ft 116kts
07-Jan-18 12:44 34.148255 -118.064650 283 7878ft 116kts
07-Jan-18 12:45 34.155130 -118.102631 283 7873ft 114kts
07-Jan-18 12:46 34.161891 -118.140007 283 7902ft 113kts
07-Jan-18 12:47 34.168580 -118.176992 283 7930ft 112kts
07-Jan-18 12:48 34.175231 -118.213849 283 7958ft 112kts
07-Jan-18 12:49 34.181834 -118.250557 282 7986ft 111kts
07-Jan-18 12:50 34.187224 -118.280766 282 8009ft 110kts
07-Jan-18 12:51 34.193748 -118.317207 281 8036ft 110kts
07-Jan-18 12:52 34.200257 -118.353638 281 8041ft 111kts
07-Jan-18 12:53 34.206800 -118.390289 281 8040ft 112kts
07-Jan-18 12:54 34.214431 -118.433125 281 8038ft 112kts
07-Jan-18 12:55 34.219885 -118.463791 281 8037ft 112kts
07-Jan-18 12:56 34.227948 -118.500299 291 8035ft 113kts
07-Jan-18 12:57 34.240015 -118.535191 291 8034ft 113kts
07-Jan-18 12:58 34.252157 -118.570352 291 8033ft 113kts
07-Jan-18 12:59 34.264235 -118.605449 291 8031ft 113kts
07-Jan-18 13:00 34.276312 -118.640467 291 8030ft 112kts
07-Jan-18 13:01 34.288085 -118.674677 291 8030ft 113kts
07-Jan-18 13:02 34.300100 -118.709628 291 8029ft 113kts
07-Jan-18 13:03 34.312127 -118.744673 291 8027ft 112kts
07-Jan-18 13:04 34.324132 -118.779677 291 8026ft 112kts
07-Jan-18 13:05 34.336162 -118.814785 291 8025ft 112kts
07-Jan-18 13:06 34.348120 -118.849745 291 8025ft 112kts
07-Jan-18 13:07 34.359367 -118.885209 281 8025ft 112kts
07-Jan-18 13:08 34.365260 -118.922381 277 8025ft 112kts
07-Jan-18 13:09 34.370780 -118.960007 279 8006ft 113kts
07-Jan-18 13:10 34.377046 -118.997425 280 8006ft 113kts
07-Jan-18 13:11 34.383536 -119.034824 280 8006ft 113kts
07-Jan-18 13:12 34.390095 -119.072291 280 8006ft 114kts
07-Jan-18 13:13 34.396677 -119.109844 280 8006ft 114kts
07-Jan-18 13:14 34.403252 -119.147399 280 8006ft 114kts
07-Jan-18 13:15 34.409794 -119.184857 280 8006ft 114kts
07-Jan-18 13:16 34.416347 -119.222377 280 8006ft 114kts
07-Jan-18 13:17 34.422919 -119.260055 280 8006ft 114kts
07-Jan-18 13:18 34.429356 -119.297605 280 8006ft 114kts
07-Jan-18 13:19 34.435938 -119.335161 279 8008ft 114kts
07-Jan-18 13:20 34.442513 -119.373024 279 8009ft 114kts
07-Jan-18 13:21 34.449045 -119.410797 279 8011ft 115kts
07-Jan-18 13:22 34.455614 -119.448876 279 8012ft 115kts
07-Jan-18 13:23 34.462079 -119.486473 279 8059ft 114kts
07-Jan-18 13:24 34.468598 -119.524471 279 8061ft 116kts
07-Jan-18 13:25 34.475173 -119.562821 279 8061ft 116kts
07-Jan-18 13:26 34.481743 -119.601164 279 8061ft 116kts
07-Jan-18 13:27 34.488304 -119.639560 279 8061ft 116kts
07-Jan-18 13:28 34.494765 -119.677939 277 8062ft 116kts
07-Jan-18 13:29 34.500500 -119.716472 278 8061ft 116kts
07-Jan-18 13:30 34.506814 -119.755034 278 8061ft 116kts
07-Jan-18 13:31 34.511051 -119.793626 272 8061ft 115kts
07-Jan-18 13:32 34.513772 -119.832445 272 8060ft 115kts
07-Jan-18 13:33 34.516488 -119.871292 272 8058ft 115kts
07-Jan-18 13:34 34.519180 -119.910012 273 8057ft 115kts
07-Jan-18 13:35 34.521867 -119.948813 273 8056ft 115kts
07-Jan-18 13:36 34.524543 -119.987367 274 8055ft 115kts
07-Jan-18 13:37 34.527178 -120.025513 274 8054ft 114kts
07-Jan-18 13:38 34.529877 -120.064941 274 8053ft 118kts
07-Jan-18 13:39 34.542538 -120.099414 319 8052ft 120kts
07-Jan-18 13:40 34.568802 -120.124362 320 8052ft 120kts
07-Jan-18 13:41 34.595348 -120.148905 321 8052ft 120kts
07-Jan-18 13:42 34.621955 -120.173337 321 8052ft 120kts
07-Jan-18 13:43 34.648474 -120.197636 321 8052ft 118kts
07-Jan-18 13:44 34.674682 -120.221636 321 8052ft 118kts
07-Jan-18 13:45 34.701264 -120.246020 321 7997ft 119kts
07-Jan-18 13:46 34.727166 -120.269827 321 7999ft 118kts
07-Jan-18 13:47 34.753238 -120.293805 321 8005ft 118kts
07-Jan-18 13:48 34.779382 -120.317861 321 8010ft 118kts
07-Jan-18 13:49 34.805527 -120.341935 321 8014ft 118kts
07-Jan-18 13:50 34.831380 -120.366377 321 8018ft 118kts
07-Jan-18 13:51 34.857493 -120.390721 322 8021ft 118kts
07-Jan-18 13:52 34.883900 -120.415162 323 7827ft 131kts
07-Jan-18 13:53 34.911997 -120.441386 322 6819ft 123kts
07-Jan-18 13:54 34.939318 -120.466922 322 5762ft 125kts
07-Jan-18 13:55 34.967358 -120.493157 322 4889ft 118kts
07-Jan-18 13:56 34.992738 -120.517037 322 5022ft 115kts
07-Jan-18 13:57 35.020830 -120.528533 28 4855ft 126kts
07-Jan-18 13:58 35.050364 -120.503797 35 4157ft 129kts
07-Jan-18 13:59 35.078398 -120.478505 35 3649ft 123kts
07-Jan-18 14:00 35.105360 -120.454030 36 3295ft 113kts
07-Jan-18 14:01 35.130712 -120.461735 311 3071ft 120kts
07-Jan-18 14:02 35.151031 -120.493164 307 2891ft 110kts
07-Jan-18 14:03 35.169336 -120.522946 307 2732ft 118kts
07-Jan-18 14:04 35.189203 -120.556637 305 1973ft 124kts
07-Jan-18 14:05 35.206043 -120.586123 304 1321ft 76kts
07-Jan-18 14:06 35.218686 -120.608284 305 833ft 83kts
07-Jan-18 14:07 35.229935 -120.628019 304 397ft 70kts
07-Jan-18 14:08 35.237518 -120.639909 7 215ft 0kts
07-Jan-18 14:09 35.238662 -120.641534 324 215ft 19kts
07-Jan-18 14:10 35.239024 -120.641547 35 215ft 0kts
07-Jan-18 14:11 35.239023 -120.641547 35 215ft 0kts
07-Jan-18 14:12 35.239023 -120.641547 35 215ft 0kts

Navigation Log

Ident Type
1. KSBD Airport
2. PDZ Navaid
3. TIFNI Fix
4. BAYJY Fix
5. ADAMM Fix
6. PIRRO Fix
7. ITSME Fix
8. ELMOO Fix
9. PURMS Fix
10. DARTS Fix
11. VNY Navaid
12. SESPE Fix
13. FIM Navaid
14. OHIGH Fix
15. RZS Navaid
16. GVO Navaid
17. AFOXY Fix
18. ORCUT Fix
19. FABEG Fix
20. NINOO Fix
21. AVILA Fix
22. MQO Navaid
23. KSBP Airport